首页
METAR-TAF:

METAR-TAF

机场 :

Bullhead City, 亞利桑那州, 美国

纬度: 35-09-27N, 经度: 114-33-34W, 海拔: 212米

当前天气观测

该预报发布于28分钟前的08:15 UTC
静风
温度 14°C
湿度 51%
气压 1014 hPa
能見度: 16.1公里
天空无云

METAR: KIFP 170815Z AUTO 00000KT 10SM CLR 14/04 A2993 RMK AO2

时间: 01:43 (08:43 UTC)

预报

该预报发布于3小时和20分钟前的05:23 UTC
预报有效从17日的 06点(UTC)到 18日的 06点(UTC)
风速5节,风向多变
能見度: 10公里
散云层高于25000英尺
从 17日的 1300点(UTC)
风速11节,风向北转东北
能見度: 10公里
散云层高于25000英尺
从 17日的 1800点(UTC)
风速16节,风向,有时为24节阵风
能見度: 10公里
散云层高于25000英尺
从 18日的 0300点(UTC)
风速11节,风向北转东北
能見度: 10公里
少量云层高于25000英尺

TAF: KIFP 170523Z 1706/1806 VRB05KT P6SM SCT250 FM171300 02011KT P6SM SCT250 FM171800 36016G24KT P6SM SCT250 FM180300 02011KT P6SM FEW250

超过4000个机场的气象观测和天气预报(METAR&TAF报告)。

可查询的气象台以黄色和红色小点在地图上表示。

将鼠标移到小点上方,可查看气象台名称。

然后点击查看天气观测和预报。

如需切换地图:点击带黑十字的绿色按钮放大地图;点击带横线的绿色按钮缩小地图;或者点击绿色箭头查看邻近地区的地图。


METAR-TAF: